sensor_id;sensor_type;location;lat;lon;timestamp;pressure;altitude;pressure_sealevel;temperature;humidity
19736;BME280;32064;49.310;8.646;2023-04-23T00:00:05;99892.09;;;17.60;73.35
19736;BME280;32064;49.310;8.646;2023-04-23T00:02:32;99885.97;;;17.59;73.60
19736;BME280;32064;49.310;8.646;2023-04-23T00:05:02;99882.63;;;17.57;72.43
19736;BME280;32064;49.310;8.646;2023-04-23T00:07:32;99886.63;;;17.53;72.87
19736;BME280;32064;49.310;8.646;2023-04-23T00:09:59;99889.09;;;17.55;72.67
19736;BME280;32064;49.310;8.646;2023-04-23T00:12:26;99887.59;;;17.52;73.77
19736;BME280;32064;49.310;8.646;2023-04-23T00:14:52;99884.78;;;17.45;72.83
19736;BME280;32064;49.310;8.646;2023-04-23T00:17:17;99887.63;;;17.44;72.80
19736;BME280;32064;49.310;8.646;2023-04-23T00:19:44;99890.44;;;17.42;73.54
19736;BME280;32064;49.310;8.646;2023-04-23T00:22:09;99892.28;;;17.42;73.22
19736;BME280;32064;49.310;8.646;2023-04-23T00:24:35;99895.91;;;17.41;73.69
19736;BME280;32064;49.310;8.646;2023-04-23T00:27:03;99891.25;;;17.35;73.23
19736;BME280;32064;49.310;8.646;2023-04-23T00:29:28;99891.56;;;17.32;73.90
19736;BME280;32064;49.310;8.646;2023-04-23T00:31:54;99893.75;;;17.28;73.23
19736;BME280;32064;49.310;8.646;2023-04-23T00:34:19;99895.91;;;17.24;73.33
19736;BME280;32064;49.310;8.646;2023-04-23T00:36:45;99899.72;;;17.22;73.19
19736;BME280;32064;49.310;8.646;2023-04-23T00:39:10;99898.22;;;17.19;74.15
19736;BME280;32064;49.310;8.646;2023-04-23T00:41:36;99898.19;;;17.11;74.33
19736;BME280;32064;49.310;8.646;2023-04-23T00:44:01;99898.19;;;17.11;74.71
19736;BME280;32064;49.310;8.646;2023-04-23T00:46:27;99900.19;;;17.17;73.00
19736;BME280;32064;49.310;8.646;2023-04-23T00:48:53;99894.38;;;17.14;74.36
19736;BME280;32064;49.310;8.646;2023-04-23T00:51:20;99893.34;;;17.06;74.42
19736;BME280;32064;49.310;8.646;2023-04-23T00:53:46;99898.66;;;17.06;74.88
19736;BME280;32064;49.310;8.646;2023-04-23T00:56:12;99892.50;;;16.98;73.89
19736;BME280;32064;49.310;8.646;2023-04-23T00:58:39;99896.66;;;17.00;73.66
19736;BME280;32064;49.310;8.646;2023-04-23T01:01:04;99897.97;;;16.88;74.70
19736;BME280;32064;49.310;8.646;2023-04-23T01:03:30;99896.97;;;16.89;75.77
19736;BME280;32064;49.310;8.646;2023-04-23T01:05:57;99898.31;;;16.93;74.61
19736;BME280;32064;49.310;8.646;2023-04-23T01:08:23;99896.81;;;16.91;75.83
19736;BME280;32064;49.310;8.646;2023-04-23T01:10:50;99895.44;;;16.87;74.19
19736;BME280;32064;49.310;8.646;2023-04-23T01:13:16;99904.59;;;16.92;74.29
19736;BME280;32064;49.310;8.646;2023-04-23T01:15:43;99902.78;;;16.85;75.55
19736;BME280;32064;49.310;8.646;2023-04-23T01:18:09;99902.44;;;16.88;76.26
19736;BME280;32064;49.310;8.646;2023-04-23T01:20:35;99904.41;;;16.86;76.20
19736;BME280;32064;49.310;8.646;2023-04-23T01:23:05;99908.72;;;16.87;76.68
19736;BME280;32064;49.310;8.646;2023-04-23T01:25:30;99905.25;;;16.86;76.23
19736;BME280;32064;49.310;8.646;2023-04-23T01:27:56;99909.75;;;16.86;76.54
19736;BME280;32064;49.310;8.646;2023-04-23T01:30:26;99911.56;;;16.85;76.06
19736;BME280;32064;49.310;8.646;2023-04-23T01:32:53;99906.94;;;16.87;75.57
19736;BME280;32064;49.310;8.646;2023-04-23T01:35:20;99906.25;;;16.85;75.80
19736;BME280;32064;49.310;8.646;2023-04-23T01:37:46;99905.25;;;16.86;75.29
19736;BME280;32064;49.310;8.646;2023-04-23T01:40:12;99916.38;;;16.81;76.14
19736;BME280;32064;49.310;8.646;2023-04-23T01:42:38;99905.91;;;16.80;76.10
19736;BME280;32064;49.310;8.646;2023-04-23T01:45:04;99899.38;;;16.74;77.55
19736;BME280;32064;49.310;8.646;2023-04-23T01:47:33;99916.13;;;16.75;77.40
19736;BME280;32064;49.310;8.646;2023-04-23T01:49:58;99916.97;;;16.75;76.48
19736;BME280;32064;49.310;8.646;2023-04-23T01:52:24;99917.13;;;16.74;76.79
19736;BME280;32064;49.310;8.646;2023-04-23T01:54:49;99923.59;;;16.71;77.67
19736;BME280;32064;49.310;8.646;2023-04-23T01:57:14;99925.66;;;16.77;76.90
19736;BME280;32064;49.310;8.646;2023-04-23T01:59:41;99922.28;;;16.75;77.41
19736;BME280;32064;49.310;8.646;2023-04-23T02:02:06;99921.44;;;16.75;76.26
19736;BME280;32064;49.310;8.646;2023-04-23T02:04:35;99923.59;;;16.71;77.52
19736;BME280;32064;49.310;8.646;2023-04-23T02:07:02;99917.91;;;16.66;76.96
19736;BME280;32064;49.310;8.646;2023-04-23T02:09:28;99922.91;;;16.69;77.97
19736;BME280;32064;49.310;8.646;2023-04-23T02:11:53;99921.09;;;16.70;77.97
19736;BME280;32064;49.310;8.646;2023-04-23T02:14:19;99931.06;;;16.68;77.57
19736;BME280;32064;49.310;8.646;2023-04-23T02:16:45;99928.03;;;16.63;78.02
19736;BME280;32064;49.310;8.646;2023-04-23T02:19:11;99932.22;;;16.65;77.02
19736;BME280;32064;49.310;8.646;2023-04-23T02:21:36;99927.88;;;16.64;77.56
19736;BME280;32064;49.310;8.646;2023-04-23T02:24:05;99922.88;;;16.61;78.46
19736;BME280;32064;49.310;8.646;2023-04-23T02:26:31;99922.56;;;16.64;78.66
19736;BME280;32064;49.310;8.646;2023-04-23T02:28:56;99924.69;;;16.60;77.72
19736;BME280;32064;49.310;8.646;2023-04-23T02:31:22;99933.78;;;16.50;79.05
19736;BME280;32064;49.310;8.646;2023-04-23T02:33:47;99936.22;;;16.43;79.37
19736;BME280;32064;49.310;8.646;2023-04-23T02:36:13;99933.72;;;16.42;79.21
19736;BME280;32064;49.310;8.646;2023-04-23T02:38:39;99925.16;;;16.48;79.04
19736;BME280;32064;49.310;8.646;2023-04-23T02:41:10;99930.22;;;16.41;78.97
19736;BME280;32064;49.310;8.646;2023-04-23T02:43:36;99931.56;;;16.37;78.16
19736;BME280;32064;49.310;8.646;2023-04-23T02:46:01;99933.38;;;16.36;78.97
19736;BME280;32064;49.310;8.646;2023-04-23T02:48:38;99931.50;;;16.29;79.57
19736;BME280;32064;49.310;8.646;2023-04-23T02:51:13;99934.34;;;16.35;79.46
19736;BME280;32064;49.310;8.646;2023-04-23T02:53:38;99932.25;;;16.39;78.23
19736;BME280;32064;49.310;8.646;2023-04-23T02:56:04;99946.72;;;16.45;78.23
19736;BME280;32064;49.310;8.646;2023-04-23T02:58:31;99937.06;;;16.44;79.26
19736;BME280;32064;49.310;8.646;2023-04-23T03:00:57;99937.00;;;16.35;78.69
19736;BME280;32064;49.310;8.646;2023-04-23T03:03:23;99936.34;;;16.33;80.32
19736;BME280;32064;49.310;8.646;2023-04-23T03:05:51;99938.16;;;16.33;80.14
19736;BME280;32064;49.310;8.646;2023-04-23T03:08:16;99926.69;;;16.32;79.08
19736;BME280;32064;49.310;8.646;2023-04-23T03:10:42;99920.69;;;16.30;79.80
19736;BME280;32064;49.310;8.646;2023-04-23T03:13:07;99923.06;;;16.33;79.05
19736;BME280;32064;49.310;8.646;2023-04-23T03:15:33;99917.41;;;16.28;79.16
19736;BME280;32064;49.310;8.646;2023-04-23T03:17:59;99917.16;;;16.22;80.28
19736;BME280;32064;49.310;8.646;2023-04-23T03:20:26;99916.03;;;16.24;80.65
19736;BME280;32064;49.310;8.646;2023-04-23T03:22:52;99917.72;;;16.25;80.26
19736;BME280;32064;49.310;8.646;2023-04-23T03:25:18;99921.66;;;16.21;79.52
19736;BME280;32064;49.310;8.646;2023-04-23T03:27:44;99926.81;;;16.23;80.55
19736;BME280;32064;49.310;8.646;2023-04-23T03:30:10;99927.13;;;16.20;79.38
19736;BME280;32064;49.310;8.646;2023-04-23T03:32:35;99932.13;;;16.23;79.63
19736;BME280;32064;49.310;8.646;2023-04-23T03:35:03;99920.13;;;16.19;80.47
19736;BME280;32064;49.310;8.646;2023-04-23T03:37:28;99929.88;;;16.10;79.43
19736;BME280;32064;49.310;8.646;2023-04-23T03:39:54;99925.03;;;16.05;79.46
19736;BME280;32064;49.310;8.646;2023-04-23T03:42:19;99927.38;;;16.08;80.37
19736;BME280;32064;49.310;8.646;2023-04-23T03:44:45;99929.50;;;16.05;80.21
19736;BME280;32064;49.310;8.646;2023-04-23T03:47:10;99937.75;;;16.02;80.36
19736;BME280;32064;49.310;8.646;2023-04-23T03:49:35;99928.59;;;15.96;79.95
19736;BME280;32064;49.310;8.646;2023-04-23T03:52:01;99925.13;;;15.96;78.83
19736;BME280;32064;49.310;8.646;2023-04-23T03:54:26;99931.25;;;15.96;79.20
19736;BME280;32064;49.310;8.646;2023-04-23T03:56:52;99935.03;;;15.93;79.54
19736;BME280;32064;49.310;8.646;2023-04-23T03:59:18;99935.22;;;15.92;79.98
19736;BME280;32064;49.310;8.646;2023-04-23T04:01:44;99939.16;;;15.88;79.48
19736;BME280;32064;49.310;8.646;2023-04-23T04:04:09;99932.03;;;15.88;79.05
19736;BME280;32064;49.310;8.646;2023-04-23T04:06:35;99941.66;;;15.89;79.57
19736;BME280;32064;49.310;8.646;2023-04-23T04:09:00;99938.31;;;15.87;79.29
19736;BME280;32064;49.310;8.646;2023-04-23T04:11:25;99935.34;;;15.90;79.11
19736;BME280;32064;49.310;8.646;2023-04-23T04:13:51;99932.56;;;15.92;78.45
19736;BME280;32064;49.310;8.646;2023-04-23T04:16:16;99936.22;;;15.91;78.55
19736;BME280;32064;49.310;8.646;2023-04-23T04:18:42;99940.66;;;15.90;77.91
19736;BME280;32064;49.310;8.646;2023-04-23T04:21:07;99936.34;;;15.89;78.71
19736;BME280;32064;49.310;8.646;2023-04-23T04:23:33;99942.78;;;15.87;78.52
19736;BME280;32064;49.310;8.646;2023-04-23T04:25:59;99943.63;;;15.87;79.09
19736;BME280;32064;49.310;8.646;2023-04-23T04:28:24;99941.66;;;15.89;79.18
19736;BME280;32064;49.310;8.646;2023-04-23T04:30:51;99953.09;;;15.90;79.10
19736;BME280;32064;49.310;8.646;2023-04-23T04:33:18;99953.56;;;15.85;79.61
19736;BME280;32064;49.310;8.646;2023-04-23T04:35:45;99957.06;;;15.86;79.65
19736;BME280;32064;49.310;8.646;2023-04-23T04:38:12;99944.53;;;15.78;78.86
19736;BME280;32064;49.310;8.646;2023-04-23T04:40:37;99937.19;;;15.72;80.31
19736;BME280;32064;49.310;8.646;2023-04-23T04:43:02;99935.75;;;15.78;79.87
19736;BME280;32064;49.310;8.646;2023-04-23T04:45:31;99943.53;;;15.79;78.92
19736;BME280;32064;49.310;8.646;2023-04-23T04:47:56;99936.59;;;15.78;79.09
19736;BME280;32064;49.310;8.646;2023-04-23T04:50:22;99940.06;;;15.79;80.35
19736;BME280;32064;49.310;8.646;2023-04-23T04:52:48;99940.59;;;15.82;79.53
19736;BME280;32064;49.310;8.646;2023-04-23T04:55:14;99939.94;;;15.80;79.45
19736;BME280;32064;49.310;8.646;2023-04-23T04:57:39;99944.09;;;15.83;79.70
19736;BME280;32064;49.310;8.646;2023-04-23T05:00:22;99947.28;;;15.86;79.45
19736;BME280;32064;49.310;8.646;2023-04-23T05:02:49;99949.63;;;15.89;79.37
19736;BME280;32064;49.310;8.646;2023-04-23T05:05:14;99957.56;;;15.89;79.93
19736;BME280;32064;49.310;8.646;2023-04-23T05:07:40;99950.44;;;15.90;80.56
19736;BME280;32064;49.310;8.646;2023-04-23T05:10:06;99952.13;;;15.91;80.17
19736;BME280;32064;49.310;8.646;2023-04-23T05:12:31;99955.75;;;15.90;79.51
19736;BME280;32064;49.310;8.646;2023-04-23T05:14:57;99959.78;;;15.94;80.39
19736;BME280;32064;49.310;8.646;2023-04-23T05:17:22;99955.81;;;15.98;79.17
19736;BME280;32064;49.310;8.646;2023-04-23T05:19:47;99961.44;;;15.95;80.30
19736;BME280;32064;49.310;8.646;2023-04-23T05:22:13;99961.13;;;15.98;79.31
19736;BME280;32064;49.310;8.646;2023-04-23T05:24:39;99965.28;;;16.01;80.28
19736;BME280;32064;49.310;8.646;2023-04-23T05:27:04;99961.28;;;15.97;79.73
19736;BME280;32064;49.310;8.646;2023-04-23T05:29:30;99961.50;;;16.03;79.22
19736;BME280;32064;49.310;8.646;2023-04-23T05:31:55;99968.25;;;15.98;79.92
19736;BME280;32064;49.310;8.646;2023-04-23T05:34:21;99956.19;;;16.03;79.10
19736;BME280;32064;49.310;8.646;2023-04-23T05:36:46;99950.44;;;15.90;80.92
19736;BME280;32064;49.310;8.646;2023-04-23T05:39:11;99954.78;;;15.91;80.72
19736;BME280;32064;49.310;8.646;2023-04-23T05:41:37;99955.38;;;16.03;80.46
19736;BME280;32064;49.310;8.646;2023-04-23T05:44:02;99956.25;;;16.11;79.44
19736;BME280;32064;49.310;8.646;2023-04-23T05:46:28;99966.09;;;16.19;78.99
19736;BME280;32064;49.310;8.646;2023-04-23T05:48:53;99955.56;;;16.09;79.45
19736;BME280;32064;49.310;8.646;2023-04-23T05:51:19;99953.03;;;16.26;79.59
19736;BME280;32064;49.310;8.646;2023-04-23T05:53:44;99948.63;;;16.34;79.44
19736;BME280;32064;49.310;8.646;2023-04-23T05:56:10;99952.66;;;16.47;78.68
19736;BME280;32064;49.310;8.646;2023-04-23T05:58:35;99950.75;;;16.57;77.90
19736;BME280;32064;49.310;8.646;2023-04-23T06:01:03;99952.91;;;16.53;78.86
19736;BME280;32064;49.310;8.646;2023-04-23T06:03:28;99953.28;;;16.67;77.62
19736;BME280;32064;49.310;8.646;2023-04-23T06:05:54;99954.47;;;16.72;77.41
19736;BME280;32064;49.310;8.646;2023-04-23T06:08:19;99964.22;;;16.64;77.88
19736;BME280;32064;49.310;8.646;2023-04-23T06:10:45;99953.97;;;16.69;78.74
19736;BME280;32064;49.310;8.646;2023-04-23T06:13:10;99963.66;;;16.78;76.92
19736;BME280;32064;49.310;8.646;2023-04-23T06:15:36;99959.94;;;16.97;76.65
19736;BME280;32064;49.310;8.646;2023-04-23T06:18:02;99953.94;;;16.95;76.96
19736;BME280;32064;49.310;8.646;2023-04-23T06:20:28;99960.25;;;16.94;77.47
19736;BME280;32064;49.310;8.646;2023-04-23T06:22:53;99952.88;;;17.14;75.93
19736;BME280;32064;49.310;8.646;2023-04-23T06:25:19;99949.03;;;17.08;77.38
19736;BME280;32064;49.310;8.646;2023-04-23T06:27:44;99954.25;;;16.92;77.22
19736;BME280;32064;49.310;8.646;2023-04-23T06:30:10;99958.28;;;16.96;76.29
19736;BME280;32064;49.310;8.646;2023-04-23T06:32:35;99955.75;;;16.86;78.14
19736;BME280;32064;49.310;8.646;2023-04-23T06:35:01;99944.63;;;16.91;76.96
19736;BME280;32064;49.310;8.646;2023-04-23T06:37:26;99948.59;;;17.37;75.26
19736;BME280;32064;49.310;8.646;2023-04-23T06:39:52;99948.78;;;17.36;76.36
19736;BME280;32064;49.310;8.646;2023-04-23T06:42:17;99952.31;;;17.53;76.00
19736;BME280;32064;49.310;8.646;2023-04-23T06:44:43;99943.63;;;20.28;66.63
19736;BME280;32064;49.310;8.646;2023-04-23T06:47:08;99940.47;;;22.35;61.56
19736;BME280;32064;49.310;8.646;2023-04-23T06:49:34;99945.41;;;23.69;57.88
19736;BME280;32064;49.310;8.646;2023-04-23T06:51:59;99951.16;;;25.38;53.45
19736;BME280;32064;49.310;8.646;2023-04-23T06:54:25;99941.72;;;24.30;55.42
19736;BME280;32064;49.310;8.646;2023-04-23T06:56:50;99948.91;;;23.70;56.36
19736;BME280;32064;49.310;8.646;2023-04-23T06:59:16;99949.94;;;21.09;64.36
19736;BME280;32064;49.310;8.646;2023-04-23T07:01:41;99946.97;;;20.45;65.69
19736;BME280;32064;49.310;8.646;2023-04-23T07:04:07;99941.91;;;25.20;53.81
19736;BME280;32064;49.310;8.646;2023-04-23T07:06:32;99942.56;;;24.44;55.25
19736;BME280;32064;49.310;8.646;2023-04-23T07:08:59;99943.38;;;26.98;49.79
19736;BME280;32064;49.310;8.646;2023-04-23T07:11:24;99933.31;;;28.43;47.46
19736;BME280;32064;49.310;8.646;2023-04-23T07:13:50;99938.75;;;27.36;50.06
19736;BME280;32064;49.310;8.646;2023-04-23T07:16:15;99931.56;;;25.87;52.73
19736;BME280;32064;49.310;8.646;2023-04-23T07:18:41;99928.22;;;28.58;47.06
19736;BME280;32064;49.310;8.646;2023-04-23T07:21:06;99934.16;;;29.65;44.75
19736;BME280;32064;49.310;8.646;2023-04-23T07:23:31;99922.94;;;30.46;43.87
19736;BME280;32064;49.310;8.646;2023-04-23T07:25:57;99929.84;;;31.19;41.72
19736;BME280;32064;49.310;8.646;2023-04-23T07:28:22;99924.41;;;31.68;40.77
19736;BME280;32064;49.310;8.646;2023-04-23T07:30:48;99921.00;;;32.20;40.58
19736;BME280;32064;49.310;8.646;2023-04-23T07:33:13;99921.25;;;32.67;39.04
19736;BME280;32064;49.310;8.646;2023-04-23T07:35:39;99919.19;;;32.89;39.08
19736;BME280;32064;49.310;8.646;2023-04-23T07:38:04;99923.25;;;32.81;39.32
19736;BME280;32064;49.310;8.646;2023-04-23T07:40:30;99910.50;;;32.39;39.99
19736;BME280;32064;49.310;8.646;2023-04-23T07:42:55;99909.69;;;28.91;45.06
19736;BME280;32064;49.310;8.646;2023-04-23T07:45:23;99912.06;;;28.75;43.93
19736;BME280;32064;49.310;8.646;2023-04-23T07:47:49;99907.00;;;26.82;47.77
19736;BME280;32064;49.310;8.646;2023-04-23T07:50:14;99908.38;;;29.96;41.12
19736;BME280;32064;49.310;8.646;2023-04-23T07:52:40;99899.53;;;31.05;40.09
19736;BME280;32064;49.310;8.646;2023-04-23T07:55:06;99902.03;;;30.07;41.20
19736;BME280;32064;49.310;8.646;2023-04-23T07:57:32;99899.41;;;29.95;41.48
19736;BME280;32064;49.310;8.646;2023-04-23T07:59:57;99898.78;;;28.74;42.59
19736;BME280;32064;49.310;8.646;2023-04-23T08:02:22;99901.66;;;28.32;44.25
19736;BME280;32064;49.310;8.646;2023-04-23T08:04:51;99898.28;;;29.46;40.44
19736;BME280;32064;49.310;8.646;2023-04-23T08:07:16;99901.13;;;30.02;38.97
19736;BME280;32064;49.310;8.646;2023-04-23T08:09:42;99892.88;;;27.71;42.99
19736;BME280;32064;49.310;8.646;2023-04-23T08:12:07;99895.91;;;26.10;44.98
19736;BME280;32064;49.310;8.646;2023-04-23T08:14:33;99896.94;;;26.90;44.23
19736;BME280;32064;49.310;8.646;2023-04-23T08:16:58;99896.63;;;25.42;46.32
19736;BME280;32064;49.310;8.646;2023-04-23T08:19:23;99884.94;;;25.80;45.95
19736;BME280;32064;49.310;8.646;2023-04-23T08:21:49;99884.03;;;24.91;47.31
19736;BME280;32064;49.310;8.646;2023-04-23T08:24:16;99878.53;;;25.49;45.30
19736;BME280;32064;49.310;8.646;2023-04-23T08:26:42;99877.16;;;26.15;43.57
19736;BME280;32064;49.310;8.646;2023-04-23T08:29:07;99881.28;;;26.61;43.51
19736;BME280;32064;49.310;8.646;2023-04-23T08:31:32;99877.63;;;25.87;44.97
19736;BME280;32064;49.310;8.646;2023-04-23T08:33:58;99872.44;;;27.63;42.18
19736;BME280;32064;49.310;8.646;2023-04-23T08:36:23;99879.03;;;28.90;40.14
19736;BME280;32064;49.310;8.646;2023-04-23T08:38:50;99874.25;;;27.51;41.99
19736;BME280;32064;49.310;8.646;2023-04-23T08:41:17;99866.34;;;28.27;41.06
19736;BME280;32064;49.310;8.646;2023-04-23T08:44:17;99863.16;;;30.40;37.49
19736;BME280;32064;49.310;8.646;2023-04-23T08:46:44;99880.25;;;31.61;36.71
19736;BME280;32064;49.310;8.646;2023-04-23T08:49:14;99871.06;;;28.43;39.83
19736;BME280;32064;49.310;8.646;2023-04-23T08:51:52;99863.66;;;27.07;42.16
19736;BME280;32064;49.310;8.646;2023-04-23T08:54:22;99867.53;;;27.30;41.11
19736;BME280;32064;49.310;8.646;2023-04-23T08:56:50;99867.38;;;27.67;40.45
19736;BME280;32064;49.310;8.646;2023-04-23T08:59:17;99868.03;;;29.37;38.77
19736;BME280;32064;49.310;8.646;2023-04-23T09:01:42;99859.19;;;27.31;40.87
19736;BME280;32064;49.310;8.646;2023-04-23T09:04:08;99860.69;;;28.52;38.76
19736;BME280;32064;49.310;8.646;2023-04-23T09:06:35;99858.09;;;30.10;37.03
19736;BME280;32064;49.310;8.646;2023-04-23T09:09:01;99855.06;;;31.17;36.32
19736;BME280;32064;49.310;8.646;2023-04-23T09:11:28;99854.66;;;31.30;34.95
19736;BME280;32064;49.310;8.646;2023-04-23T09:13:55;99859.50;;;32.25;34.14
19736;BME280;32064;49.310;8.646;2023-04-23T09:16:21;99853.38;;;32.07;34.16
19736;BME280;32064;49.310;8.646;2023-04-23T09:18:46;99853.19;;;32.19;34.20
19736;BME280;32064;49.310;8.646;2023-04-23T09:21:12;99843.75;;;33.25;33.44
19736;BME280;32064;49.310;8.646;2023-04-23T09:23:38;99836.69;;;33.70;32.08
19736;BME280;32064;49.310;8.646;2023-04-23T09:26:06;99842.91;;;33.91;32.20
19736;BME280;32064;49.310;8.646;2023-04-23T09:28:35;99846.22;;;34.09;31.31
19736;BME280;32064;49.310;8.646;2023-04-23T09:31:01;99828.19;;;33.00;33.16
19736;BME280;32064;49.310;8.646;2023-04-23T09:33:27;99826.25;;;32.23;33.31
19736;BME280;32064;49.310;8.646;2023-04-23T09:35:52;99815.59;;;30.38;35.92
19736;BME280;32064;49.310;8.646;2023-04-23T09:38:18;99815.75;;;29.08;36.60
19736;BME280;32064;49.310;8.646;2023-04-23T09:40:44;99809.47;;;29.87;36.06
19736;BME280;32064;49.310;8.646;2023-04-23T09:43:10;99807.22;;;29.84;36.30
19736;BME280;32064;49.310;8.646;2023-04-23T09:45:35;99809.19;;;29.21;35.42
19736;BME280;32064;49.310;8.646;2023-04-23T09:48:01;99809.13;;;29.66;35.22
19736;BME280;32064;49.310;8.646;2023-04-23T09:50:34;99800.06;;;29.94;34.88
19736;BME280;32064;49.310;8.646;2023-04-23T09:53:01;99793.03;;;30.37;35.09
19736;BME280;32064;49.310;8.646;2023-04-23T09:55:37;99798.06;;;30.95;34.07
19736;BME280;32064;49.310;8.646;2023-04-23T09:58:13;99799.88;;;31.16;33.61
19736;BME280;32064;49.310;8.646;2023-04-23T10:00:45;99790.91;;;31.48;33.88
19736;BME280;32064;49.310;8.646;2023-04-23T10:03:11;99783.38;;;31.28;34.43
19736;BME280;32064;49.310;8.646;2023-04-23T10:05:39;99786.09;;;30.96;34.69
19736;BME280;32064;49.310;8.646;2023-04-23T10:08:05;99778.91;;;30.35;35.34
19736;BME280;32064;49.310;8.646;2023-04-23T10:10:32;99776.94;;;29.36;35.32
19736;BME280;32064;49.310;8.646;2023-04-23T10:12:58;99774.66;;;28.54;36.83
19736;BME280;32064;49.310;8.646;2023-04-23T10:15:25;99768.69;;;28.28;36.76
19736;BME280;32064;49.310;8.646;2023-04-23T10:17:51;99761.34;;;27.88;37.50
19736;BME280;32064;49.310;8.646;2023-04-23T10:20:18;99767.47;;;27.60;38.05
19736;BME280;32064;49.310;8.646;2023-04-23T10:22:45;99764.88;;;27.53;37.65
19736;BME280;32064;49.310;8.646;2023-04-23T10:25:11;99762.50;;;27.45;38.06
19736;BME280;32064;49.310;8.646;2023-04-23T10:27:41;99750.94;;;27.15;37.76
19736;BME280;32064;49.310;8.646;2023-04-23T10:30:09;99756.63;;;27.37;37.04
19736;BME280;32064;49.310;8.646;2023-04-23T10:32:36;99743.03;;;27.55;35.91
19736;BME280;32064;49.310;8.646;2023-04-23T10:35:01;99736.47;;;27.09;37.05
19736;BME280;32064;49.310;8.646;2023-04-23T10:37:27;99740.06;;;27.21;36.07
19736;BME280;32064;49.310;8.646;2023-04-23T10:39:55;99734.44;;;27.46;36.36
19736;BME280;32064;49.310;8.646;2023-04-23T10:42:23;99731.31;;;28.13;36.07
19736;BME280;32064;49.310;8.646;2023-04-23T10:44:49;99731.66;;;28.57;35.11
19736;BME280;32064;49.310;8.646;2023-04-23T10:47:15;99727.25;;;27.75;36.05
19736;BME280;32064;49.310;8.646;2023-04-23T10:49:42;99723.16;;;27.61;36.27
19736;BME280;32064;49.310;8.646;2023-04-23T10:52:17;99731.28;;;28.25;34.57
19736;BME280;32064;49.310;8.646;2023-04-23T10:54:56;99720.16;;;29.29;34.08
19736;BME280;32064;49.310;8.646;2023-04-23T10:57:22;99719.44;;;29.34;34.57
19736;BME280;32064;49.310;8.646;2023-04-23T10:59:52;99714.28;;;29.71;33.22
19736;BME280;32064;49.310;8.646;2023-04-23T11:02:18;99706.16;;;30.37;33.40
19736;BME280;32064;49.310;8.646;2023-04-23T11:04:45;99712.75;;;29.75;33.91
19736;BME280;32064;49.310;8.646;2023-04-23T11:07:12;99720.00;;;29.36;34.55
19736;BME280;32064;49.310;8.646;2023-04-23T11:09:42;99711.53;;;28.99;33.79
19736;BME280;32064;49.310;8.646;2023-04-23T11:14:50;99712.00;;;28.96;34.50
19736;BME280;32064;49.310;8.646;2023-04-23T11:17:23;99710.09;;;28.34;33.94
19736;BME280;32064;49.310;8.646;2023-04-23T11:20:18;99701.31;;;28.15;34.90
19736;BME280;32064;49.310;8.646;2023-04-23T11:22:48;99694.47;;;27.72;35.13
19736;BME280;32064;49.310;8.646;2023-04-23T11:25:25;99692.13;;;27.28;35.51
19736;BME280;32064;49.310;8.646;2023-04-23T11:27:55;99691.56;;;27.26;35.02
19736;BME280;32064;49.310;8.646;2023-04-23T11:30:27;99681.06;;;27.89;34.67
19736;BME280;32064;49.310;8.646;2023-04-23T11:32:55;99677.91;;;27.57;35.50
19736;BME280;32064;49.310;8.646;2023-04-23T11:35:23;99675.22;;;27.45;36.24
19736;BME280;32064;49.310;8.646;2023-04-23T11:37:52;99676.63;;;27.24;36.23
19736;BME280;32064;49.310;8.646;2023-04-23T11:40:18;99662.16;;;27.06;36.04
19736;BME280;32064;49.310;8.646;2023-04-23T11:42:50;99662.72;;;26.97;36.16
19736;BME280;32064;49.310;8.646;2023-04-23T11:45:21;99658.03;;;26.92;36.81
19736;BME280;32064;49.310;8.646;2023-04-23T11:47:49;99657.59;;;26.53;36.98
19736;BME280;32064;49.310;8.646;2023-04-23T11:50:31;99648.16;;;26.14;36.67
19736;BME280;32064;49.310;8.646;2023-04-23T11:53:20;99640.19;;;26.49;37.20
19736;BME280;32064;49.310;8.646;2023-04-23T11:55:48;99636.19;;;26.94;36.05
19736;BME280;32064;49.310;8.646;2023-04-23T11:58:16;99639.47;;;26.96;36.32
19736;BME280;32064;49.310;8.646;2023-04-23T12:00:43;99632.78;;;26.33;36.34
19736;BME280;32064;49.310;8.646;2023-04-23T12:03:08;99627.00;;;26.59;36.20
19736;BME280;32064;49.310;8.646;2023-04-23T12:05:38;99625.75;;;26.43;36.12
19736;BME280;32064;49.310;8.646;2023-04-23T12:08:10;99618.31;;;26.27;35.84
19736;BME280;32064;49.310;8.646;2023-04-23T12:10:52;99622.28;;;25.94;36.25
19736;BME280;32064;49.310;8.646;2023-04-23T12:13:20;99611.28;;;25.77;35.87
19736;BME280;32064;49.310;8.646;2023-04-23T12:15:51;99603.66;;;25.38;36.83
19736;BME280;32064;49.310;8.646;2023-04-23T12:18:18;99599.25;;;25.43;37.14
19736;BME280;32064;49.310;8.646;2023-04-23T12:20:44;99593.19;;;26.27;36.76
19736;BME280;32064;49.310;8.646;2023-04-23T12:23:10;99590.91;;;26.42;35.79
19736;BME280;32064;49.310;8.646;2023-04-23T12:25:36;99578.66;;;26.16;36.17
19736;BME280;32064;49.310;8.646;2023-04-23T12:28:05;99579.94;;;25.65;36.36
19736;BME280;32064;49.310;8.646;2023-04-23T12:30:33;99572.75;;;25.59;36.52
19736;BME280;32064;49.310;8.646;2023-04-23T12:32:59;99577.03;;;25.29;36.42
19736;BME280;32064;49.310;8.646;2023-04-23T12:35:48;99576.19;;;25.47;36.77
19736;BME280;32064;49.310;8.646;2023-04-23T12:38:24;99572.53;;;26.09;36.02
19736;BME280;32064;49.310;8.646;2023-04-23T12:40:55;99574.63;;;26.07;36.38
19736;BME280;32064;49.310;8.646;2023-04-23T12:43:21;99573.75;;;26.25;35.80
19736;BME280;32064;49.310;8.646;2023-04-23T12:45:47;99572.47;;;26.27;37.05
19736;BME280;32064;49.310;8.646;2023-04-23T12:48:13;99562.41;;;26.46;36.85
19736;BME280;32064;49.310;8.646;2023-04-23T12:50:39;99560.50;;;26.47;37.22
19736;BME280;32064;49.310;8.646;2023-04-23T12:53:06;99567.03;;;26.15;37.34
19736;BME280;32064;49.310;8.646;2023-04-23T12:55:32;99561.56;;;26.34;36.79
19736;BME280;32064;49.310;8.646;2023-04-23T12:57:58;99554.75;;;26.31;37.17
19736;BME280;32064;49.310;8.646;2023-04-23T13:00:24;99555.41;;;26.80;36.60